createdAt,value
2022-12-26T00:00:56.832Z,46.44
2022-12-26T00:01:56.822Z,55.29
2022-12-26T00:02:56.924Z,44.99
2022-12-26T00:03:56.932Z,47.50
2022-12-26T00:04:57.824Z,46.74
2022-12-26T00:05:56.762Z,44.60
2022-12-26T00:06:56.768Z,57.37
2022-12-26T00:07:56.770Z,45.11
2022-12-26T00:08:56.713Z,45.58
2022-12-26T00:09:56.739Z,53.25
2022-12-26T00:10:56.711Z,52.89
2022-12-26T00:11:56.687Z,53.21
2022-12-26T00:12:56.703Z,48.25
2022-12-26T00:13:57.672Z,49.15
2022-12-26T00:15:28.623Z,44.19
2022-12-26T00:15:56.721Z,46.61
2022-12-26T00:16:56.741Z,46.88
2022-12-26T00:17:56.693Z,48.63
2022-12-26T00:18:56.699Z,49.43
2022-12-26T00:19:56.660Z,50.90
2022-12-26T00:20:56.652Z,50.30
2022-12-26T00:21:56.604Z,52.82
2022-12-26T00:22:56.591Z,56.95
2022-12-26T00:23:56.591Z,45.11
2022-12-26T00:24:56.634Z,44.70
2022-12-26T00:25:56.653Z,44.25
2022-12-26T00:26:56.631Z,58.73
2022-12-26T00:27:56.585Z,45.88
2022-12-26T00:28:56.563Z,46.42
2022-12-26T00:29:56.681Z,52.72
2022-12-26T00:30:56.546Z,51.47
2022-12-26T00:31:56.566Z,45.75
2022-12-26T00:32:56.697Z,49.33
2022-12-26T00:33:56.553Z,45.46
2022-12-26T00:34:56.525Z,50.49
2022-12-26T00:35:56.537Z,46.83
2022-12-26T00:36:56.523Z,51.08
2022-12-26T00:37:56.577Z,47.05
2022-12-26T00:38:56.514Z,46.68
2022-12-26T00:39:56.575Z,53.29
2022-12-26T00:40:56.488Z,51.61
2022-12-26T00:41:56.472Z,46.94
2022-12-26T00:42:56.461Z,50.53
2022-12-26T00:43:56.446Z,50.36
2022-12-26T00:44:56.474Z,52.09
2022-12-26T00:45:56.429Z,45.91
2022-12-26T00:46:56.531Z,44.42
2022-12-26T00:47:56.433Z,50.65
2022-12-26T00:48:56.411Z,46.80
2022-12-26T00:50:14.211Z,44.70
2022-12-26T00:50:57.415Z,46.11
2022-12-26T00:51:56.488Z,50.08
2022-12-26T00:52:56.401Z,50.92
2022-12-26T00:53:56.503Z,50.03
2022-12-26T00:55:28.397Z,51.37
2022-12-26T00:55:56.350Z,45.93
2022-12-26T00:56:56.383Z,49.86
2022-12-26T00:57:56.377Z,46.32
2022-12-26T00:58:56.322Z,51.33
2022-12-26T00:59:56.317Z,45.34
2022-12-26T01:00:56.393Z,48.10
2022-12-26T01:01:56.463Z,51.04
2022-12-26T01:02:56.424Z,46.10
2022-12-26T01:03:56.293Z,48.70
2022-12-26T01:04:56.333Z,51.55
2022-12-26T01:05:56.295Z,50.47
2022-12-26T01:06:56.950Z,45.77
2022-12-26T01:08:21.822Z,46.80
2022-12-26T01:08:57.256Z,49.91
2022-12-26T01:09:56.262Z,50.87
2022-12-26T01:10:56.278Z,52.60
2022-12-26T01:11:56.227Z,52.19
2022-12-26T01:12:56.230Z,46.08
2022-12-26T01:13:56.212Z,46.03
2022-12-26T01:14:56.239Z,51.07
2022-12-26T01:15:56.295Z,47.80
2022-12-26T01:16:56.283Z,47.43
2022-12-26T01:17:56.204Z,46.59
2022-12-26T01:18:56.200Z,44.95
2022-12-26T01:19:56.280Z,45.15
2022-12-26T01:20:56.167Z,46.20
2022-12-26T01:21:56.192Z,46.11
2022-12-26T01:22:56.142Z,44.56
2022-12-26T01:24:28.059Z,44.91
2022-12-26T01:24:56.154Z,44.39
2022-12-26T01:26:16.445Z,46.92
2022-12-26T01:26:57.160Z,49.70
2022-12-26T01:27:56.198Z,52.69
2022-12-26T01:28:57.119Z,45.32
2022-12-26T01:29:56.127Z,50.13
2022-12-26T01:30:56.147Z,52.69
2022-12-26T01:31:56.151Z,45.21
2022-12-26T01:32:56.079Z,44.91
2022-12-26T01:33:56.050Z,46.16
2022-12-26T01:35:29.541Z,45.82
2022-12-26T01:35:56.072Z,46.87
2022-12-26T01:36:56.155Z,51.09
2022-12-26T01:37:56.036Z,45.18
2022-12-26T01:38:56.017Z,45.28
2022-12-26T01:39:56.027Z,50.81
2022-12-26T01:40:55.996Z,51.03
2022-12-26T01:41:57.041Z,51.95
2022-12-26T01:42:55.997Z,44.88
2022-12-26T01:43:56.027Z,44.60
2022-12-26T01:44:55.982Z,46.12
2022-12-26T01:45:55.988Z,47.94
2022-12-26T01:46:56.011Z,50.60
2022-12-26T01:47:56.019Z,44.74
2022-12-26T01:48:56.047Z,45.47
2022-12-26T01:49:55.928Z,54.58
2022-12-26T01:50:55.991Z,51.95
2022-12-26T01:51:55.934Z,50.32
2022-12-26T01:52:55.929Z,45.26
2022-12-26T01:53:55.937Z,50.04
2022-12-26T01:54:56.925Z,44.84
2022-12-26T01:55:55.957Z,48.70
2022-12-26T01:56:55.935Z,45.17
2022-12-26T01:57:55.922Z,46.68
2022-12-26T01:58:55.879Z,46.13
2022-12-26T01:59:55.913Z,45.54
2022-12-26T02:00:55.906Z,50.17
2022-12-26T02:01:56.123Z,46.52
2022-12-26T02:02:55.922Z,52.35
2022-12-26T02:03:55.807Z,45.65
2022-12-26T02:04:55.920Z,55.93
2022-12-26T02:06:28.273Z,44.76
2022-12-26T02:07:27.916Z,44.41
2022-12-26T02:08:28.228Z,46.15
2022-12-26T02:08:55.827Z,45.64
2022-12-26T02:09:56.047Z,46.35
2022-12-26T02:10:55.784Z,46.40
2022-12-26T02:12:37.463Z,46.05
2022-12-26T02:12:56.789Z,46.80
2022-12-26T02:13:55.787Z,45.65
2022-12-26T02:14:55.808Z,51.81
2022-12-26T02:16:06.813Z,44.54
2022-12-26T02:20:01.086Z,52.18
2022-12-26T02:21:28.749Z,46.52
2022-12-26T02:22:26.390Z,44.92
2022-12-26T02:23:27.993Z,47.24
2022-12-26T02:23:54.536Z,47.04
2022-12-26T02:25:26.760Z,44.90
2022-12-26T02:28:52.105Z,44.71
2022-12-26T02:29:53.300Z,45.29
2022-12-26T02:30:53.247Z,45.77
2022-12-26T02:31:53.383Z,45.72
2022-12-26T02:32:53.236Z,44.52
2022-12-26T02:33:53.246Z,45.19
2022-12-26T02:34:53.255Z,54.35
2022-12-26T02:35:53.216Z,45.40
2022-12-26T02:36:53.243Z,50.13
2022-12-26T02:37:53.190Z,51.91
2022-12-26T02:38:54.371Z,49.86
2022-12-26T02:39:53.187Z,56.69
2022-12-26T02:40:53.164Z,47.42
2022-12-26T02:41:53.268Z,50.93
2022-12-26T02:42:53.174Z,45.74
2022-12-26T02:43:53.206Z,45.05
2022-12-26T02:44:53.229Z,44.85
2022-12-26T02:45:53.226Z,55.90
2022-12-26T02:46:53.147Z,45.70
2022-12-26T02:47:53.128Z,44.85
2022-12-26T02:48:53.086Z,45.50
2022-12-26T02:49:53.120Z,47.56
2022-12-26T02:50:53.137Z,51.94
2022-12-26T02:51:53.048Z,46.03
2022-12-26T02:52:53.142Z,48.29
2022-12-26T02:53:54.161Z,45.81
2022-12-26T02:54:53.099Z,52.02
2022-12-26T02:55:53.051Z,44.72
2022-12-26T02:56:53.034Z,44.85
2022-12-26T02:57:53.000Z,45.34
2022-12-26T02:58:53.040Z,44.86
2022-12-26T02:59:55.553Z,44.89
2022-12-26T03:00:53.093Z,51.42
2022-12-26T03:01:53.163Z,45.68
2022-12-26T03:02:53.175Z,45.76
2022-12-26T03:03:53.044Z,46.28
2022-12-26T03:04:53.015Z,45.42
2022-12-26T03:05:53.037Z,46.28
2022-12-26T03:06:53.022Z,57.93
2022-12-26T03:07:52.962Z,52.21
2022-12-26T03:08:54.036Z,47.16
2022-12-26T03:09:52.971Z,46.56
2022-12-26T03:10:52.981Z,46.12
2022-12-26T03:11:52.978Z,46.46
2022-12-26T03:12:52.986Z,49.94
2022-12-26T03:13:52.894Z,45.91
2022-12-26T03:14:52.985Z,52.78
2022-12-26T03:15:52.945Z,46.41
2022-12-26T03:16:53.100Z,45.71
2022-12-26T03:17:52.911Z,50.23
2022-12-26T03:18:56.831Z,45.67
2022-12-26T03:19:53.881Z,47.46
2022-12-26T03:20:52.838Z,50.28
2022-12-26T03:21:52.907Z,52.69
2022-12-26T03:22:52.942Z,50.38
2022-12-26T03:23:52.829Z,47.34
2022-12-26T03:24:52.824Z,45.39
2022-12-26T03:25:52.856Z,50.59
2022-12-26T03:26:52.802Z,45.99
2022-12-26T03:27:52.825Z,46.63
2022-12-26T03:28:52.852Z,45.59
2022-12-26T03:29:52.824Z,47.27
2022-12-26T03:30:52.862Z,45.59
2022-12-26T03:31:52.766Z,51.56
2022-12-26T03:32:52.815Z,47.66
2022-12-26T03:33:53.320Z,46.20
2022-12-26T03:34:52.879Z,48.60
2022-12-26T03:35:53.373Z,54.58
2022-12-26T03:36:53.311Z,45.05
2022-12-26T03:37:52.807Z,45.29
2022-12-26T03:38:52.740Z,44.96
2022-12-26T03:39:52.775Z,45.60
2022-12-26T03:40:52.730Z,46.34
2022-12-26T03:41:52.736Z,45.61
2022-12-26T03:42:52.677Z,45.95
2022-12-26T03:43:52.659Z,45.67
2022-12-26T03:44:54.104Z,48.81
2022-12-26T03:45:53.686Z,46.52
2022-12-26T03:46:52.682Z,51.08
2022-12-26T04:03:55.609Z,56.79
2022-12-26T04:04:55.524Z,51.60
2022-12-26T04:05:56.883Z,46.77
2022-12-26T04:06:56.679Z,52.04
2022-12-26T04:07:57.715Z,49.07
2022-12-26T04:08:57.728Z,50.35
2022-12-26T04:09:56.672Z,49.51
2022-12-26T04:10:57.233Z,45.29
2022-12-26T04:11:56.673Z,48.91
2022-12-26T04:12:56.764Z,47.86
2022-12-26T04:13:56.638Z,45.01
2022-12-26T04:14:56.634Z,45.00
2022-12-26T04:15:56.652Z,44.70
2022-12-26T04:16:56.593Z,47.43
2022-12-26T04:17:56.610Z,51.51
2022-12-26T04:18:56.624Z,51.22
2022-12-26T04:19:56.618Z,46.43
2022-12-26T04:20:56.540Z,50.96
2022-12-26T04:21:56.553Z,45.72
2022-12-26T04:22:56.585Z,51.67
2022-12-26T04:23:56.618Z,51.20
2022-12-26T04:24:56.629Z,50.80
2022-12-26T04:25:56.565Z,47.13
2022-12-26T04:26:56.578Z,54.97
2022-12-26T04:27:56.569Z,47.88
2022-12-26T04:28:56.491Z,47.35
2022-12-26T04:29:56.514Z,45.92
2022-12-26T04:30:56.549Z,45.13
2022-12-26T04:31:56.503Z,45.11
2022-12-26T04:32:56.676Z,45.98
2022-12-26T04:33:56.464Z,45.91
2022-12-26T04:34:56.462Z,54.83
2022-12-26T04:35:56.554Z,53.60
2022-12-26T04:36:56.466Z,46.21
2022-12-26T04:37:56.427Z,45.79
2022-12-26T04:38:56.428Z,53.85
2022-12-26T04:39:56.417Z,49.07
2022-12-26T04:40:56.404Z,50.15
2022-12-26T04:41:56.488Z,45.41
2022-12-26T04:42:56.422Z,52.16
2022-12-26T04:43:56.400Z,46.03
2022-12-26T04:44:56.372Z,51.91
2022-12-26T04:45:56.442Z,45.71
2022-12-26T04:46:56.417Z,50.17
2022-12-26T04:47:56.371Z,47.98
2022-12-26T04:48:56.348Z,49.05
2022-12-26T04:49:56.373Z,45.50
2022-12-26T04:50:56.308Z,46.17
2022-12-26T04:51:56.397Z,49.35
2022-12-26T04:52:56.319Z,45.53
2022-12-26T04:53:56.381Z,45.85
2022-12-26T04:54:56.324Z,51.34
2022-12-26T04:55:56.379Z,48.61
2022-12-26T04:56:56.289Z,45.76
2022-12-26T04:57:56.326Z,50.78
2022-12-26T04:58:56.370Z,51.69
2022-12-26T04:59:56.334Z,47.87
2022-12-26T05:00:56.306Z,48.20
2022-12-26T05:01:56.311Z,47.79
2022-12-26T05:02:56.400Z,47.89
2022-12-26T05:03:56.306Z,48.24
2022-12-26T05:04:56.215Z,52.32
2022-12-26T05:05:56.221Z,52.83
2022-12-26T05:06:56.192Z,51.45
2022-12-26T05:07:56.202Z,53.39
2022-12-26T05:08:56.249Z,51.04
2022-12-26T05:09:56.203Z,47.30
2022-12-26T05:10:56.159Z,45.68
2022-12-26T05:11:56.162Z,46.03
2022-12-26T05:12:56.238Z,45.76
2022-12-26T05:14:28.550Z,54.23
2022-12-26T05:14:56.196Z,46.03
2022-12-26T05:15:56.200Z,47.83
2022-12-26T05:16:56.108Z,54.85
2022-12-26T05:17:56.295Z,45.79
2022-12-26T05:18:56.123Z,52.43
2022-12-26T05:20:28.558Z,46.56
2022-12-26T05:21:28.485Z,45.66
2022-12-26T05:22:29.040Z,57.18
2022-12-26T05:23:28.137Z,45.01
2022-12-26T05:24:28.513Z,46.38
2022-12-26T05:24:56.134Z,46.24
2022-12-26T05:26:28.581Z,49.71
2022-12-26T05:27:28.973Z,45.69
2022-12-26T05:28:28.484Z,45.35
2022-12-26T05:29:28.497Z,49.92
2022-12-26T05:29:56.010Z,55.50
2022-12-26T05:30:56.143Z,51.03
2022-12-26T05:31:56.147Z,47.26
2022-12-26T05:32:55.978Z,48.20
2022-12-26T05:33:55.998Z,53.68
2022-12-26T05:34:55.966Z,49.12
2022-12-26T05:35:55.934Z,50.07
2022-12-26T05:36:55.949Z,47.06
2022-12-26T05:37:55.957Z,53.35
2022-12-26T05:38:55.960Z,47.28
2022-12-26T05:39:55.923Z,51.49
2022-12-26T05:40:55.925Z,51.54
2022-12-26T05:41:55.903Z,52.13
2022-12-26T05:42:55.963Z,52.08
2022-12-26T05:43:55.915Z,46.63
2022-12-26T05:44:55.953Z,48.43
2022-12-26T05:45:55.900Z,49.31
2022-12-26T05:46:55.936Z,47.69
2022-12-26T05:47:55.889Z,53.32
2022-12-26T05:48:55.921Z,46.69
2022-12-26T05:49:55.872Z,46.80
2022-12-26T05:50:55.862Z,46.95
2022-12-26T05:51:55.834Z,51.22
2022-12-26T05:52:55.810Z,46.24
2022-12-26T05:54:28.222Z,56.09
2022-12-26T05:54:55.823Z,44.89
2022-12-26T05:55:55.811Z,45.30
2022-12-26T05:56:55.792Z,51.50
2022-12-26T05:57:55.835Z,46.88
2022-12-26T05:58:55.817Z,50.12
2022-12-26T05:59:55.755Z,46.58
2022-12-26T06:00:55.749Z,46.04
2022-12-26T06:01:55.913Z,46.90
2022-12-26T06:02:56.808Z,45.46
2022-12-26T06:03:55.794Z,45.19
2022-12-26T06:04:55.734Z,46.09
2022-12-26T06:05:55.786Z,45.45
2022-12-26T06:06:55.739Z,45.21
2022-12-26T06:07:55.814Z,45.83
2022-12-26T06:08:55.762Z,46.71
2022-12-26T06:09:55.759Z,47.51
2022-12-26T06:10:55.819Z,51.54
2022-12-26T06:11:55.751Z,49.98
2022-12-26T06:12:55.661Z,61.46
2022-12-26T06:13:55.758Z,49.72
2022-12-26T06:14:55.660Z,52.54
2022-12-26T06:15:55.659Z,45.12
2022-12-26T06:16:55.708Z,49.47
2022-12-26T06:17:55.611Z,49.19
2022-12-26T06:18:55.633Z,47.89
2022-12-26T06:19:55.693Z,45.36
2022-12-26T06:20:55.655Z,51.01
2022-12-26T06:21:55.603Z,45.18
2022-12-26T06:22:55.621Z,45.36
2022-12-26T06:23:55.605Z,50.70
2022-12-26T06:24:55.611Z,45.97
2022-12-26T06:25:55.621Z,45.80
2022-12-26T06:26:55.641Z,45.43
2022-12-26T06:27:55.572Z,45.53
2022-12-26T06:28:55.561Z,53.18
2022-12-26T06:29:55.548Z,47.03
2022-12-26T06:30:55.548Z,62.41
2022-12-26T06:31:55.743Z,51.57
2022-12-26T06:32:55.680Z,47.92
2022-12-26T06:34:27.956Z,55.36
2022-12-26T06:34:55.585Z,56.32
2022-12-26T06:35:55.491Z,51.36
2022-12-26T06:36:56.670Z,53.82
2022-12-26T06:37:55.489Z,55.00
2022-12-26T06:38:55.480Z,55.99
2022-12-26T06:39:55.469Z,50.10
2022-12-26T06:40:55.490Z,55.91
2022-12-26T06:41:55.507Z,46.05
2022-12-26T06:42:55.456Z,46.05
2022-12-26T06:43:55.454Z,48.65
2022-12-26T06:44:55.517Z,48.75
2022-12-26T06:45:55.486Z,51.27
2022-12-26T06:46:55.491Z,48.69
2022-12-26T06:47:55.418Z,51.82
2022-12-26T06:48:55.389Z,48.55
2022-12-26T06:49:55.484Z,51.81
2022-12-26T06:50:55.434Z,53.38
2022-12-26T06:51:55.463Z,50.81
2022-12-26T06:52:55.438Z,45.48
2022-12-26T06:53:55.400Z,52.34
2022-12-26T06:54:55.415Z,46.60
2022-12-26T06:55:55.435Z,47.91
2022-12-26T06:56:55.368Z,58.32
2022-12-26T06:57:55.341Z,53.54
2022-12-26T06:58:55.343Z,55.86
2022-12-26T06:59:55.379Z,46.02
2022-12-26T07:00:55.349Z,51.58
2022-12-26T07:01:55.408Z,59.49
2022-12-26T07:02:55.371Z,52.25
2022-12-26T07:03:55.317Z,52.63
2022-12-26T07:04:55.289Z,53.21
2022-12-26T07:05:55.263Z,46.56
2022-12-26T07:06:55.345Z,47.00
2022-12-26T07:07:55.304Z,51.50
2022-12-26T07:08:55.309Z,46.80
2022-12-26T07:09:55.284Z,50.68
2022-12-26T07:10:55.241Z,54.01
2022-12-26T07:11:55.251Z,53.12
2022-12-26T07:12:55.239Z,51.87
2022-12-26T07:13:55.267Z,54.43
2022-12-26T07:14:59.698Z,48.14
2022-12-26T07:15:57.233Z,60.58
2022-12-26T07:16:55.229Z,50.74
2022-12-26T07:17:56.047Z,47.04
2022-12-26T07:18:55.298Z,52.30
2022-12-26T07:19:55.329Z,55.42
2022-12-26T07:20:55.289Z,50.65
2022-12-26T07:21:55.212Z,51.39
2022-12-26T07:22:55.212Z,52.68
2022-12-26T07:23:55.150Z,46.94
2022-12-26T07:24:56.038Z,59.23
2022-12-26T07:25:55.162Z,55.26
2022-12-26T07:26:55.195Z,52.88
2022-12-26T07:27:55.125Z,54.27
2022-12-26T07:28:55.111Z,55.17
2022-12-26T07:29:55.140Z,53.86
2022-12-26T07:30:55.102Z,48.05
2022-12-26T07:31:55.164Z,55.04
2022-12-26T07:32:55.135Z,55.99
2022-12-26T07:33:55.063Z,53.98
2022-12-26T07:34:56.231Z,55.14
2022-12-26T07:35:55.502Z,54.19
2022-12-26T07:36:55.370Z,57.78
2022-12-26T07:37:55.050Z,60.28
2022-12-26T07:38:56.033Z,61.76
2022-12-26T07:39:58.964Z,58.75
2022-12-26T07:40:56.043Z,58.56
2022-12-26T07:41:55.145Z,58.38
2022-12-26T07:42:55.063Z,57.51
2022-12-26T07:43:55.096Z,60.85
2022-12-26T07:44:55.022Z,51.88
2022-12-26T07:45:55.641Z,60.70
2022-12-26T07:46:55.016Z,60.73
2022-12-26T07:47:54.974Z,61.48
2022-12-26T07:48:54.972Z,52.33
2022-12-26T07:49:55.092Z,59.30
2022-12-26T07:50:54.930Z,46.42
2022-12-26T07:51:55.009Z,61.03
2022-12-26T07:52:54.939Z,53.06
2022-12-26T07:53:54.971Z,53.11
2022-12-26T07:54:54.932Z,59.75
2022-12-26T07:55:55.572Z,60.82
2022-12-26T07:57:14.967Z,52.33
2022-12-26T07:57:56.877Z,46.51
2022-12-26T07:58:55.004Z,58.32
2022-12-26T07:59:54.989Z,45.73
2022-12-26T08:00:54.969Z,50.50
2022-12-26T08:01:56.719Z,52.29
2022-12-26T08:02:55.174Z,50.59
2022-12-26T08:03:55.022Z,48.97
2022-12-26T08:04:54.835Z,54.62
2022-12-26T08:06:27.215Z,52.87
2022-12-26T08:06:54.833Z,62.21
2022-12-26T08:07:54.818Z,59.87
2022-12-26T08:08:54.795Z,55.06
2022-12-26T08:09:55.894Z,56.65
2022-12-26T08:10:54.798Z,54.05
2022-12-26T08:11:54.763Z,58.25
2022-12-26T08:12:54.781Z,51.40
2022-12-26T08:13:54.743Z,62.32
2022-12-26T08:14:55.132Z,56.58
2022-12-26T08:15:56.085Z,58.20
2022-12-26T08:16:54.825Z,49.07
2022-12-26T08:17:54.737Z,60.77
2022-12-26T08:18:54.725Z,60.81
2022-12-26T08:19:55.132Z,56.47
2022-12-26T08:20:55.562Z,47.09
2022-12-26T08:21:55.395Z,59.84
2022-12-26T08:23:54.673Z,59.95
2022-12-26T08:24:54.688Z,58.01
2022-12-26T08:25:54.656Z,58.39
2022-12-26T08:26:54.671Z,54.08
2022-12-26T08:27:54.673Z,50.75
2022-12-26T08:28:55.619Z,54.28
2022-12-26T08:29:54.643Z,57.24
2022-12-26T08:30:54.640Z,52.32
2022-12-26T08:31:55.107Z,64.84
2022-12-26T08:32:54.692Z,58.43
2022-12-26T08:33:54.614Z,51.27
2022-12-26T08:34:54.653Z,58.04
2022-12-26T08:35:54.626Z,67.50
2022-12-26T08:36:54.597Z,55.36
2022-12-26T08:37:54.565Z,58.74
2022-12-26T08:38:54.580Z,47.44
2022-12-26T08:39:54.560Z,55.08
2022-12-26T08:40:55.545Z,56.06
2022-12-26T08:41:54.528Z,61.45
2022-12-26T08:43:12.280Z,64.08
2022-12-26T08:44:26.433Z,56.60
2022-12-26T08:44:56.556Z,64.32
2022-12-26T08:45:54.549Z,64.52
2022-12-26T08:46:54.509Z,56.41
2022-12-26T08:47:54.483Z,47.52
2022-12-26T08:48:54.493Z,64.67
2022-12-26T08:49:54.509Z,57.44
2022-12-26T08:50:54.498Z,56.62
2022-12-26T08:51:54.475Z,48.99
2022-12-26T08:52:54.521Z,54.81
2022-12-26T08:53:54.484Z,64.79
2022-12-26T08:54:54.475Z,61.34
2022-12-26T08:55:54.436Z,51.95
2022-12-26T08:56:54.443Z,58.47
2022-12-26T08:57:54.442Z,62.37
2022-12-26T08:58:54.443Z,58.88
2022-12-26T08:59:54.431Z,60.49
2022-12-26T09:00:55.518Z,66.01
2022-12-26T09:01:55.494Z,59.43
2022-12-26T09:02:54.637Z,55.54
2022-12-26T09:03:54.380Z,65.17
2022-12-26T09:04:54.360Z,60.93
2022-12-26T09:06:26.801Z,60.83
2022-12-26T09:06:54.367Z,45.88
2022-12-26T09:07:54.432Z,52.17
2022-12-26T09:08:55.138Z,58.81
2022-12-26T09:09:54.336Z,58.95
2022-12-26T09:10:54.336Z,53.22
2022-12-26T09:11:54.354Z,51.19
2022-12-26T09:12:54.364Z,64.39
2022-12-26T09:13:54.319Z,66.76
2022-12-26T09:14:54.422Z,67.78
2022-12-26T09:15:54.316Z,69.82
2022-12-26T09:16:54.473Z,67.03
2022-12-26T09:17:54.322Z,68.57
2022-12-26T09:18:54.302Z,62.81
2022-12-26T09:19:54.300Z,65.46
2022-12-26T09:21:26.163Z,63.89
2022-12-26T09:21:54.278Z,63.41
2022-12-26T09:22:54.308Z,63.14
2022-12-26T09:24:26.156Z,65.54
2022-12-26T09:24:54.272Z,62.10
2022-12-26T09:26:26.613Z,58.19
2022-12-26T09:26:54.266Z,54.61
2022-12-26T09:28:26.167Z,67.91
2022-12-26T09:28:54.270Z,54.00
2022-12-26T09:29:54.209Z,67.84
2022-12-26T09:30:54.224Z,59.52
2022-12-26T09:31:54.167Z,60.71
2022-12-26T09:32:54.196Z,57.33
2022-12-26T09:33:54.204Z,67.77
2022-12-26T09:34:54.153Z,64.85
2022-12-26T09:35:58.290Z,64.25
2022-12-26T09:36:55.181Z,65.03
2022-12-26T09:37:54.138Z,68.21
2022-12-26T09:38:54.196Z,66.51
2022-12-26T09:39:54.124Z,67.55
2022-12-26T09:40:54.157Z,65.89
2022-12-26T09:41:54.096Z,64.74
2022-12-26T09:42:54.071Z,67.75
2022-12-26T09:43:54.102Z,64.17
2022-12-26T09:44:54.120Z,66.29
2022-12-26T09:45:54.097Z,50.03
2022-12-26T09:46:54.101Z,65.81
2022-12-26T09:47:54.104Z,62.00
2022-12-26T09:48:54.086Z,63.42
2022-12-26T09:49:54.108Z,62.05
2022-12-26T09:50:54.109Z,68.34
2022-12-26T09:51:54.066Z,64.58
2022-12-26T09:52:54.018Z,65.59
2022-12-26T09:53:54.049Z,64.52
2022-12-26T09:54:54.031Z,69.05
2022-12-26T09:55:54.010Z,70.16
2022-12-26T09:57:02.364Z,70.54
2022-12-26T09:57:56.039Z,67.08
2022-12-26T09:58:54.117Z,66.72
2022-12-26T09:59:54.103Z,73.93
2022-12-26T10:00:56.137Z,69.04
2022-12-26T10:01:54.340Z,71.59
2022-12-26T10:02:54.051Z,72.57
2022-12-26T10:03:53.987Z,73.71
2022-12-26T10:04:54.318Z,69.81
2022-12-26T10:05:54.009Z,72.13
2022-12-26T10:06:53.980Z,69.57
2022-12-26T10:07:54.041Z,66.58
2022-12-26T10:08:56.115Z,68.77
2022-12-26T10:09:53.975Z,72.78
2022-12-26T10:10:55.770Z,67.78
2022-12-26T10:11:54.198Z,69.79
2022-12-26T10:12:53.956Z,67.48
2022-12-26T10:13:54.986Z,69.47
2022-12-26T10:14:55.442Z,62.14
2022-12-26T10:15:58.359Z,65.51
2022-12-26T10:16:54.952Z,69.51
2022-12-26T10:17:53.987Z,68.64
2022-12-26T10:18:53.835Z,66.73
2022-12-26T10:19:54.123Z,57.73
2022-12-26T10:20:53.895Z,62.86
2022-12-26T10:21:53.906Z,65.25
2022-12-26T10:22:53.821Z,69.13
2022-12-26T10:23:53.859Z,63.39
2022-12-26T10:24:53.886Z,66.14
2022-12-26T10:25:54.960Z,69.80
2022-12-26T10:26:53.854Z,62.45
2022-12-26T10:27:54.689Z,57.11
2022-12-26T10:28:54.421Z,68.49
2022-12-26T10:29:54.410Z,69.79
2022-12-26T10:30:53.789Z,62.03
2022-12-26T10:31:53.985Z,64.48
2022-12-26T10:32:53.720Z,61.95
2022-12-26T10:33:53.720Z,66.35
2022-12-26T10:34:53.749Z,66.31
2022-12-26T10:35:53.712Z,71.44
2022-12-26T10:36:53.741Z,64.92
2022-12-26T10:37:53.729Z,63.22
2022-12-26T10:38:53.671Z,65.18
2022-12-26T10:40:26.274Z,65.68
2022-12-26T10:40:53.666Z,69.23
2022-12-26T10:42:25.569Z,71.48
2022-12-26T10:42:53.676Z,66.09
2022-12-26T10:43:53.602Z,63.91
2022-12-26T10:44:53.602Z,70.08
2022-12-26T10:45:53.639Z,69.19
2022-12-26T10:46:53.617Z,69.66
2022-12-26T10:47:53.592Z,66.96
2022-12-26T10:48:53.566Z,62.41
2022-12-26T10:49:53.610Z,69.12
2022-12-26T10:50:53.565Z,63.18
2022-12-26T10:51:53.552Z,63.94
2022-12-26T10:52:53.540Z,68.82
2022-12-26T10:53:53.632Z,62.54
2022-12-26T10:55:28.970Z,65.11
2022-12-26T10:56:20.449Z,65.83
2022-12-26T10:56:53.520Z,61.13
2022-12-26T10:57:53.500Z,66.95
2022-12-26T10:58:53.487Z,63.93
2022-12-26T10:59:53.553Z,62.90
2022-12-26T11:00:53.539Z,62.35
2022-12-26T11:01:53.567Z,69.55
2022-12-26T11:02:53.651Z,67.97
2022-12-26T11:03:53.501Z,54.99
2022-12-26T11:05:13.649Z,62.98
2022-12-26T11:06:10.853Z,64.53
2022-12-26T11:06:55.425Z,62.25
2022-12-26T11:07:53.427Z,61.47
2022-12-26T11:08:53.450Z,63.87
2022-12-26T11:09:53.426Z,61.24
2022-12-26T11:10:53.442Z,68.00
2022-12-26T11:11:53.424Z,66.96
2022-12-26T11:12:53.432Z,59.24
2022-12-26T11:13:57.733Z,58.20
2022-12-26T11:14:54.385Z,67.49
2022-12-26T11:15:53.586Z,61.68
2022-12-26T11:16:53.410Z,60.71
2022-12-26T11:17:53.385Z,62.27
2022-12-26T11:18:53.379Z,67.59
2022-12-26T11:19:53.886Z,68.67
2022-12-26T11:20:53.379Z,64.62
2022-12-26T11:21:54.242Z,64.31
2022-12-26T11:22:54.209Z,61.27
2022-12-26T11:23:53.384Z,67.09
2022-12-26T11:24:53.370Z,64.82
2022-12-26T11:25:53.352Z,64.82
2022-12-26T11:26:53.293Z,63.95
2022-12-26T11:27:53.275Z,67.16
2022-12-26T11:28:53.288Z,64.18
2022-12-26T11:29:53.284Z,66.59
2022-12-26T11:30:54.356Z,62.50
2022-12-26T11:31:53.251Z,69.35
2022-12-26T11:32:53.305Z,61.72
2022-12-26T11:33:53.225Z,65.33
2022-12-26T11:34:53.308Z,54.38
2022-12-26T11:35:53.225Z,65.31
2022-12-26T11:36:53.250Z,62.46
2022-12-26T11:37:53.278Z,62.92
2022-12-26T11:38:53.202Z,63.00
2022-12-26T11:39:53.185Z,59.17
2022-12-26T11:40:53.219Z,65.93
2022-12-26T11:41:53.189Z,63.10
2022-12-26T11:42:54.203Z,56.99
2022-12-26T11:43:53.228Z,55.71
2022-12-26T11:44:53.162Z,62.31
2022-12-26T11:45:53.146Z,63.72
2022-12-26T11:46:53.238Z,55.31
2022-12-26T11:47:53.152Z,66.26
2022-12-26T11:48:53.137Z,61.93
2022-12-26T11:49:53.177Z,61.69
2022-12-26T11:50:53.108Z,56.35
2022-12-26T11:51:58.730Z,63.70
2022-12-26T11:52:55.077Z,65.79
2022-12-26T11:53:53.110Z,66.52
2022-12-26T11:54:53.075Z,62.85
2022-12-26T11:55:53.062Z,69.08
2022-12-26T11:56:53.067Z,63.08
2022-12-26T11:57:56.917Z,63.62
2022-12-26T11:58:55.085Z,57.89
2022-12-26T11:59:53.065Z,55.82
2022-12-26T12:00:53.039Z,68.24
2022-12-26T12:01:53.179Z,61.90
2022-12-26T12:02:53.115Z,63.04
2022-12-26T12:03:53.031Z,59.39
2022-12-26T12:04:53.017Z,57.32
2022-12-26T12:05:53.027Z,65.04
2022-12-26T12:06:52.955Z,66.86
2022-12-26T12:07:53.051Z,64.89
2022-12-26T12:08:52.983Z,65.79
2022-12-26T12:09:52.959Z,56.67
2022-12-26T12:10:52.944Z,65.56
2022-12-26T12:11:52.962Z,65.37
2022-12-26T12:12:53.027Z,68.09
2022-12-26T12:13:52.971Z,62.24
2022-12-26T12:14:55.016Z,60.16
2022-12-26T12:15:53.935Z,62.71
2022-12-26T12:16:52.922Z,63.45
2022-12-26T12:17:52.981Z,63.80
2022-12-26T12:18:52.906Z,53.94
2022-12-26T12:19:52.874Z,62.96
2022-12-26T12:20:53.013Z,61.98
2022-12-26T12:21:53.799Z,65.90
2022-12-26T12:22:52.885Z,60.18
2022-12-26T12:23:52.864Z,60.54
2022-12-26T12:24:52.922Z,63.64
2022-12-26T12:25:52.853Z,63.74
2022-12-26T12:26:56.662Z,58.83
2022-12-26T12:27:54.874Z,60.20
2022-12-26T12:28:52.880Z,56.07
2022-12-26T12:29:52.820Z,61.67
2022-12-26T12:30:52.839Z,66.70
2022-12-26T12:31:52.983Z,65.57
2022-12-26T12:32:57.070Z,66.83
2022-12-26T12:33:53.824Z,64.52
2022-12-26T12:34:52.813Z,62.45
2022-12-26T12:35:52.794Z,63.02
2022-12-26T12:36:52.767Z,67.26
2022-12-26T12:37:52.744Z,65.64
2022-12-26T12:38:56.310Z,61.94
2022-12-26T12:39:53.773Z,62.07
2022-12-26T12:40:52.749Z,62.43
2022-12-26T12:41:52.730Z,60.84
2022-12-26T12:42:52.817Z,62.08
2022-12-26T12:43:53.215Z,65.79
2022-12-26T12:44:56.599Z,63.07
2022-12-26T12:45:53.731Z,66.27
2022-12-26T12:46:52.692Z,69.45
2022-12-26T12:47:52.672Z,56.85
2022-12-26T12:48:52.690Z,64.18
2022-12-26T12:49:52.717Z,65.75
2022-12-26T12:50:56.650Z,63.06
2022-12-26T12:51:53.632Z,66.47
2022-12-26T12:52:52.624Z,65.33
2022-12-26T12:53:52.650Z,64.89
2022-12-26T12:54:52.628Z,62.08
2022-12-26T12:55:52.616Z,63.28
2022-12-26T12:56:52.616Z,66.15
2022-12-26T12:57:53.426Z,64.82
2022-12-26T12:58:53.299Z,66.83
2022-12-26T12:59:52.662Z,69.08
2022-12-26T13:00:52.757Z,62.58
2022-12-26T13:01:52.778Z,67.33
2022-12-26T13:02:52.708Z,57.58
2022-12-26T13:03:52.575Z,64.20
2022-12-26T13:04:52.546Z,64.11
2022-12-26T13:05:52.574Z,65.49
2022-12-26T13:06:52.567Z,66.55
2022-12-26T13:07:52.513Z,63.40
2022-12-26T13:08:52.502Z,62.27
2022-12-26T13:09:52.561Z,64.07
2022-12-26T13:10:52.500Z,64.25
2022-12-26T13:11:52.477Z,60.92
2022-12-26T13:12:52.472Z,63.45
2022-12-26T13:13:53.871Z,63.98
2022-12-26T13:14:53.468Z,60.97
2022-12-26T13:15:52.523Z,63.18